createdAt,value
2023-12-26T00:00:04.961Z,0
2023-12-26T00:01:19.254Z,0
2023-12-26T00:02:33.547Z,0
2023-12-26T00:03:47.840Z,0
2023-12-26T00:05:01.148Z,0
2023-12-26T00:06:15.441Z,0
2023-12-26T00:07:29.734Z,0
2023-12-26T00:08:44.026Z,0
2023-12-26T00:09:58.319Z,0
2023-12-26T00:11:12.612Z,0
2023-12-26T00:12:25.926Z,0
2023-12-26T00:13:40.211Z,0
2023-12-26T00:14:54.511Z,0
2023-12-26T00:16:08.804Z,0
2023-12-26T00:17:23.096Z,0
2023-12-26T00:18:37.389Z,0
2023-12-26T00:19:51.681Z,0
2023-12-26T00:21:05.974Z,0
2023-12-26T00:22:20.267Z,0
2023-12-26T00:23:34.560Z,0
2023-12-26T00:24:48.852Z,0
2023-12-26T00:26:03.145Z,0
2023-12-26T00:27:17.437Z,0
2023-12-26T00:28:30.746Z,0
2023-12-26T00:29:45.039Z,0
2023-12-26T00:30:59.331Z,0
2023-12-26T00:32:13.624Z,0
2023-12-26T00:33:27.917Z,0
2023-12-26T00:34:42.210Z,0
2023-12-26T00:35:56.502Z,0
2023-12-26T00:37:10.795Z,0
2023-12-26T00:38:25.087Z,0
2023-12-26T00:39:39.380Z,0
2023-12-26T00:40:53.673Z,0
2023-12-26T00:42:07.966Z,0
2023-12-26T00:43:22.258Z,0
2023-12-26T00:44:35.567Z,0
2023-12-26T00:45:49.860Z,0
2023-12-26T00:47:04.153Z,0
2023-12-26T00:48:18.446Z,0
2023-12-26T00:49:32.738Z,0
2023-12-26T00:50:47.031Z,0
2023-12-26T00:52:01.324Z,0
2023-12-26T00:53:15.617Z,0
2023-12-26T00:54:29.909Z,0
2023-12-26T00:55:44.202Z,0
2023-12-26T00:56:58.495Z,0
2023-12-26T00:58:12.787Z,0
2023-12-26T00:59:27.080Z,0
2023-12-26T01:00:40.388Z,0
2023-12-26T01:01:54.681Z,0
2023-12-26T01:03:08.974Z,0
2023-12-26T01:04:23.267Z,0
2023-12-26T01:05:37.559Z,0
2023-12-26T01:06:51.852Z,0
2023-12-26T01:08:06.144Z,0
2023-12-26T01:09:20.437Z,0
2023-12-26T01:10:34.730Z,0
2023-12-26T01:11:49.022Z,0
2023-12-26T01:13:03.315Z,0
2023-12-26T01:14:17.608Z,0
2023-12-26T01:15:31.900Z,0
2023-12-26T01:16:45.209Z,0
2023-12-26T01:17:59.502Z,0
2023-12-26T01:19:13.795Z,0
2023-12-26T01:20:28.087Z,0
2023-12-26T01:21:42.380Z,0
2023-12-26T01:22:56.672Z,0
2023-12-26T01:24:10.966Z,0
2023-12-26T01:25:25.259Z,0
2023-12-26T01:26:39.552Z,0
2023-12-26T01:27:53.844Z,0
2023-12-26T01:29:08.137Z,0
2023-12-26T01:30:22.429Z,0
2023-12-26T01:31:36.722Z,0
2023-12-26T01:32:50.031Z,0
2023-12-26T01:34:04.323Z,0
2023-12-26T01:35:18.616Z,0
2023-12-26T01:36:32.909Z,0
2023-12-26T01:37:47.202Z,0
2023-12-26T01:39:01.494Z,0
2023-12-26T01:40:15.787Z,0
2023-12-26T01:41:30.080Z,0
2023-12-26T01:42:44.372Z,0
2023-12-26T01:43:58.665Z,0
2023-12-26T01:45:12.957Z,0
2023-12-26T01:46:27.250Z,0
2023-12-26T01:47:41.543Z,0
2023-12-26T01:48:54.852Z,0
2023-12-26T01:50:09.144Z,0
2023-12-26T01:51:23.437Z,0
2023-12-26T01:52:37.729Z,0
2023-12-26T01:53:52.022Z,0
2023-12-26T01:55:06.315Z,0
2023-12-26T01:56:20.607Z,0
2023-12-26T01:57:34.900Z,0
2023-12-26T01:58:49.193Z,0
2023-12-26T02:00:03.486Z,0
2023-12-26T02:01:17.778Z,0
2023-12-26T02:02:32.071Z,0
2023-12-26T02:03:46.363Z,0
2023-12-26T02:04:59.672Z,0
2023-12-26T02:06:13.965Z,0
2023-12-26T02:07:28.257Z,0
2023-12-26T02:08:42.550Z,0
2023-12-26T02:09:56.843Z,0
2023-12-26T02:11:11.136Z,0
2023-12-26T02:12:25.428Z,0
2023-12-26T02:13:39.721Z,0
2023-12-26T02:14:54.013Z,0
2023-12-26T02:16:08.306Z,0
2023-12-26T02:17:22.599Z,0
2023-12-26T02:18:36.892Z,0
2023-12-26T02:19:51.184Z,0
2023-12-26T02:21:04.493Z,0
2023-12-26T02:22:18.785Z,0
2023-12-26T02:23:33.078Z,0
2023-12-26T02:24:47.371Z,0
2023-12-26T02:26:01.663Z,0
2023-12-26T02:27:15.956Z,0
2023-12-26T02:28:30.248Z,0
2023-12-26T02:29:44.541Z,0
2023-12-26T02:30:58.834Z,0
2023-12-26T02:32:13.127Z,0
2023-12-26T02:33:27.419Z,0
2023-12-26T02:34:41.712Z,0
2023-12-26T02:35:56.004Z,0
2023-12-26T02:37:09.313Z,0
2023-12-26T02:38:23.606Z,0
2023-12-26T02:39:37.899Z,0
2023-12-26T02:40:52.192Z,0
2023-12-26T02:42:06.484Z,0
2023-12-26T02:43:20.777Z,0
2023-12-26T02:44:35.070Z,0
2023-12-26T02:45:49.363Z,0
2023-12-26T02:47:03.656Z,0
2023-12-26T02:48:17.948Z,0
2023-12-26T02:49:32.241Z,0
2023-12-26T02:50:46.534Z,0
2023-12-26T02:52:00.826Z,0
2023-12-26T02:53:14.135Z,0
2023-12-26T02:54:28.428Z,0
2023-12-26T02:55:42.720Z,0
2023-12-26T02:56:57.013Z,0
2023-12-26T02:58:11.306Z,0
2023-12-26T02:59:25.598Z,0
2023-12-26T03:00:39.891Z,0
2023-12-26T03:01:54.184Z,0
2023-12-26T03:03:08.476Z,0
2023-12-26T03:04:22.769Z,0
2023-12-26T03:05:37.062Z,0
2023-12-26T03:06:51.354Z,0
2023-12-26T03:08:05.647Z,0
2023-12-26T03:09:18.956Z,0
2023-12-26T03:10:33.248Z,0
2023-12-26T03:11:47.541Z,0
2023-12-26T03:13:01.834Z,0
2023-12-26T03:14:16.126Z,0
2023-12-26T03:15:30.419Z,0
2023-12-26T03:16:44.712Z,0
2023-12-26T03:17:59.004Z,0
2023-12-26T03:19:13.297Z,0
2023-12-26T03:20:27.589Z,0
2023-12-26T03:21:41.882Z,0
2023-12-26T03:22:56.175Z,0
2023-12-26T03:24:10.468Z,0
2023-12-26T03:25:23.776Z,0
2023-12-26T03:26:38.069Z,0
2023-12-26T03:27:52.362Z,0
2023-12-26T03:29:06.654Z,0
2023-12-26T03:30:20.947Z,0
2023-12-26T03:31:35.239Z,0
2023-12-26T03:32:49.532Z,0
2023-12-26T03:34:03.825Z,0
2023-12-26T03:35:18.117Z,0
2023-12-26T03:36:32.410Z,0
2023-12-26T03:37:46.703Z,0
2023-12-26T03:39:00.995Z,0
2023-12-26T03:40:15.288Z,0
2023-12-26T03:41:28.597Z,0
2023-12-26T03:42:42.889Z,0
2023-12-26T03:43:57.172Z,0
2023-12-26T03:45:11.475Z,0
2023-12-26T03:46:25.768Z,0
2023-12-26T03:47:40.060Z,0
2023-12-26T03:48:54.353Z,0
2023-12-26T03:50:08.645Z,0
2023-12-26T03:51:22.938Z,0
2023-12-26T03:52:37.231Z,0
2023-12-26T03:53:51.523Z,0
2023-12-26T03:55:05.816Z,0
2023-12-26T03:56:20.109Z,0
2023-12-26T03:57:33.417Z,0
2023-12-26T03:58:47.710Z,0
2023-12-26T04:00:02.003Z,0
2023-12-26T04:01:16.295Z,0
2023-12-26T04:02:30.588Z,0
2023-12-26T04:03:44.881Z,0
2023-12-26T04:04:59.173Z,0
2023-12-26T04:06:13.466Z,0
2023-12-26T04:07:27.759Z,0
2023-12-26T04:08:42.051Z,0
2023-12-26T04:09:56.344Z,0
2023-12-26T04:11:10.636Z,0
2023-12-26T04:12:24.929Z,0
2023-12-26T04:13:38.238Z,0
2023-12-26T04:14:52.530Z,0
2023-12-26T04:16:06.823Z,0
2023-12-26T04:17:21.116Z,0
2023-12-26T04:18:35.408Z,0
2023-12-26T04:19:49.701Z,0
2023-12-26T04:21:03.015Z,0
2023-12-26T04:22:17.307Z,0
2023-12-26T04:23:31.600Z,0
2023-12-26T04:24:45.892Z,0
2023-12-26T04:26:00.185Z,0
2023-12-26T04:27:14.478Z,0
2023-12-26T04:28:28.771Z,0
2023-12-26T04:29:43.063Z,0
2023-12-26T04:30:57.356Z,0
2023-12-26T04:32:11.649Z,0
2023-12-26T04:33:25.942Z,0
2023-12-26T04:34:40.234Z,0
2023-12-26T04:35:54.527Z,0
2023-12-26T04:37:07.836Z,0
2023-12-26T04:38:22.128Z,0
2023-12-26T04:39:36.421Z,0
2023-12-26T04:40:50.714Z,0
2023-12-26T04:42:05.006Z,0
2023-12-26T04:43:19.299Z,0
2023-12-26T04:44:33.591Z,0
2023-12-26T04:45:47.884Z,0
2023-12-26T04:47:02.176Z,0
2023-12-26T04:48:16.469Z,0
2023-12-26T04:49:30.762Z,0
2023-12-26T04:50:45.055Z,0
2023-12-26T04:51:59.347Z,0
2023-12-26T04:53:12.656Z,0
2023-12-26T04:54:26.949Z,0
2023-12-26T04:55:41.241Z,0
2023-12-26T04:56:55.534Z,0
2023-12-26T04:58:09.826Z,0
2023-12-26T04:59:24.119Z,0
2023-12-26T05:00:38.412Z,0
2023-12-26T05:01:52.705Z,0
2023-12-26T05:03:06.997Z,0
2023-12-26T05:04:21.290Z,0
2023-12-26T05:05:35.582Z,0
2023-12-26T05:06:49.875Z,0
2023-12-26T05:08:04.168Z,0
2023-12-26T05:09:17.476Z,0
2023-12-26T05:10:31.769Z,0
2023-12-26T05:11:46.062Z,0
2023-12-26T05:13:00.355Z,0
2023-12-26T05:14:14.647Z,0
2023-12-26T05:15:28.940Z,0
2023-12-26T05:16:43.232Z,0
2023-12-26T05:17:57.525Z,0
2023-12-26T05:19:11.818Z,0
2023-12-26T05:20:26.110Z,0
2023-12-26T05:21:40.403Z,0
2023-12-26T05:22:54.696Z,0
2023-12-26T05:24:08.988Z,0
2023-12-26T05:25:22.297Z,0
2023-12-26T05:26:36.590Z,0
2023-12-26T05:27:50.882Z,0
2023-12-26T05:29:05.175Z,0
2023-12-26T05:30:19.468Z,0
2023-12-26T05:31:33.760Z,0
2023-12-26T05:32:48.039Z,0
2023-12-26T05:34:02.348Z,0
2023-12-26T05:35:16.640Z,0
2023-12-26T05:36:30.933Z,0
2023-12-26T05:37:45.226Z,0
2023-12-26T05:38:59.518Z,0
2023-12-26T05:40:13.811Z,0
2023-12-26T05:41:27.120Z,0
2023-12-26T05:42:41.412Z,0
2023-12-26T05:43:55.705Z,0
2023-12-26T05:45:09.998Z,0
2023-12-26T05:46:24.290Z,0
2023-12-26T05:47:38.583Z,0
2023-12-26T05:48:52.876Z,0
2023-12-26T05:50:07.168Z,0
2023-12-26T05:51:21.461Z,0
2023-12-26T05:52:35.753Z,0
2023-12-26T05:53:50.046Z,0
2023-12-26T05:55:04.339Z,0
2023-12-26T05:56:18.632Z,0
2023-12-26T05:57:31.940Z,0
2023-12-26T05:58:46.233Z,0
2023-12-26T06:00:00.526Z,0
2023-12-26T06:01:14.818Z,0
2023-12-26T06:02:29.111Z,0
2023-12-26T06:03:43.404Z,0
2023-12-26T06:04:57.696Z,0
2023-12-26T06:06:11.989Z,0
2023-12-26T06:07:26.282Z,0
2023-12-26T06:08:40.574Z,0
2023-12-26T06:09:54.867Z,0
2023-12-26T06:11:09.160Z,0
2023-12-26T06:12:23.452Z,0
2023-12-26T06:13:36.761Z,0
2023-12-26T06:14:51.054Z,0
2023-12-26T06:16:05.347Z,0
2023-12-26T06:17:19.639Z,0
2023-12-26T06:18:33.932Z,0
2023-12-26T06:19:48.224Z,0
2023-12-26T06:21:02.517Z,0
2023-12-26T06:22:16.810Z,0
2023-12-26T06:23:31.102Z,0
2023-12-26T06:24:45.395Z,0
2023-12-26T06:25:59.688Z,0
2023-12-26T06:27:13.980Z,0
2023-12-26T06:28:28.273Z,0
2023-12-26T06:29:41.582Z,0
2023-12-26T06:30:55.874Z,0
2023-12-26T06:32:10.167Z,0
2023-12-26T06:33:24.460Z,0
2023-12-26T06:34:38.752Z,0
2023-12-26T06:35:53.045Z,0
2023-12-26T06:37:07.338Z,0
2023-12-26T06:38:21.630Z,0
2023-12-26T06:39:35.923Z,0
2023-12-26T06:40:50.216Z,0
2023-12-26T06:42:04.509Z,0
2023-12-26T06:43:18.747Z,1
2023-12-26T06:44:33.040Z,0
2023-12-26T06:45:46.306Z,1
2023-12-26T06:47:00.545Z,1
2023-12-26T06:48:14.838Z,0
2023-12-26T06:49:29.088Z,2
2023-12-26T06:50:43.326Z,1
2023-12-26T06:51:57.565Z,1
2023-12-26T06:53:11.804Z,2
2023-12-26T06:54:26.042Z,3
2023-12-26T06:55:40.281Z,8
2023-12-26T06:56:54.520Z,8
2023-12-26T06:58:08.759Z,8
2023-12-26T06:59:22.997Z,8
2023-12-26T07:00:37.237Z,10
2023-12-26T07:01:50.492Z,13
2023-12-26T07:03:04.731Z,13
2023-12-26T07:04:18.969Z,12
2023-12-26T07:05:33.208Z,16
2023-12-26T07:06:47.447Z,18
2023-12-26T07:08:01.685Z,22
2023-12-26T07:09:15.924Z,22
2023-12-26T07:10:30.163Z,19
2023-12-26T07:11:44.402Z,25
2023-12-26T07:12:58.640Z,30
2023-12-26T07:14:12.879Z,31
2023-12-26T07:15:27.118Z,30
2023-12-26T07:16:41.356Z,31
2023-12-26T07:17:54.611Z,26
2023-12-26T07:19:08.850Z,26
2023-12-26T07:20:23.089Z,28
2023-12-26T07:21:37.327Z,46
2023-12-26T07:22:51.566Z,48
2023-12-26T07:24:05.805Z,48
2023-12-26T07:25:20.043Z,50
2023-12-26T07:26:34.282Z,53
2023-12-26T07:27:48.520Z,55
2023-12-26T07:29:02.759Z,53
2023-12-26T07:30:16.998Z,46
2023-12-26T07:31:31.237Z,38
2023-12-26T07:32:45.475Z,33
2023-12-26T07:33:58.730Z,32
2023-12-26T07:35:12.969Z,66
2023-12-26T07:36:27.207Z,89
2023-12-26T07:37:41.446Z,72
2023-12-26T07:38:55.685Z,49
2023-12-26T07:40:09.923Z,79
2023-12-26T07:41:24.162Z,186
2023-12-26T07:42:38.401Z,131
2023-12-26T07:43:52.639Z,128
2023-12-26T07:45:06.878Z,158
2023-12-26T07:46:21.117Z,221
2023-12-26T07:47:35.355Z,205
2023-12-26T07:48:49.594Z,168
2023-12-26T07:50:02.849Z,143
2023-12-26T07:51:17.087Z,140
2023-12-26T07:52:31.326Z,151
2023-12-26T07:53:45.565Z,180
2023-12-26T07:54:59.804Z,136
2023-12-26T07:56:14.042Z,107
2023-12-26T07:57:28.281Z,114
2023-12-26T07:58:42.520Z,137
2023-12-26T07:59:56.758Z,114
2023-12-26T08:01:10.997Z,100
2023-12-26T08:02:25.236Z,179
2023-12-26T08:03:39.475Z,181
2023-12-26T08:04:53.713Z,166
2023-12-26T08:06:06.968Z,228
2023-12-26T08:07:21.207Z,166
2023-12-26T08:08:35.445Z,189
2023-12-26T08:09:49.684Z,406
2023-12-26T08:11:03.923Z,393
2023-12-26T08:12:18.161Z,310
2023-12-26T08:13:32.400Z,341
2023-12-26T08:14:46.639Z,298
2023-12-26T08:16:00.878Z,413
2023-12-26T08:17:15.116Z,402
2023-12-26T08:18:29.355Z,407
2023-12-26T08:19:43.594Z,386
2023-12-26T08:20:57.832Z,477
2023-12-26T08:22:11.087Z,569
2023-12-26T08:23:25.326Z,627
2023-12-26T08:24:39.565Z,660
2023-12-26T08:25:53.804Z,714
2023-12-26T08:27:08.042Z,696
2023-12-26T08:28:22.281Z,653
2023-12-26T08:29:35.541Z,799
2023-12-26T08:30:49.780Z,844
2023-12-26T08:32:04.018Z,863
2023-12-26T08:33:18.257Z,862
2023-12-26T08:34:32.496Z,933
2023-12-26T08:35:46.735Z,961
2023-12-26T08:37:00.973Z,709
2023-12-26T08:38:15.212Z,1000
2023-12-26T08:39:29.450Z,1194
2023-12-26T08:40:43.689Z,1119
2023-12-26T08:41:57.928Z,1217
2023-12-26T08:43:12.166Z,994
2023-12-26T08:44:26.405Z,872
2023-12-26T08:45:39.660Z,1084
2023-12-26T08:46:53.899Z,791
2023-12-26T08:48:08.137Z,751
2023-12-26T08:49:22.376Z,503
2023-12-26T08:50:36.615Z,633
2023-12-26T08:51:50.853Z,410
2023-12-26T08:53:05.092Z,505
2023-12-26T08:54:19.331Z,688
2023-12-26T08:55:33.569Z,562
2023-12-26T08:56:47.808Z,570
2023-12-26T08:58:02.047Z,669
2023-12-26T08:59:16.286Z,582
2023-12-26T09:00:30.525Z,531
2023-12-26T09:01:43.780Z,513
2023-12-26T09:02:58.019Z,465
2023-12-26T09:04:12.257Z,630
2023-12-26T09:05:26.496Z,572
2023-12-26T09:06:40.735Z,530
2023-12-26T09:07:54.974Z,586
2023-12-26T09:09:09.212Z,709
2023-12-26T09:10:23.451Z,577
2023-12-26T09:11:37.689Z,440
2023-12-26T09:12:51.928Z,539
2023-12-26T09:14:06.167Z,439
2023-12-26T09:15:20.405Z,365
2023-12-26T09:16:34.644Z,333
2023-12-26T09:17:47.899Z,373
2023-12-26T09:19:02.138Z,369
2023-12-26T09:20:16.377Z,444
2023-12-26T09:21:30.615Z,485
2023-12-26T09:22:44.854Z,401
2023-12-26T09:23:59.092Z,710
2023-12-26T09:25:13.331Z,736
2023-12-26T09:26:27.570Z,761
2023-12-26T09:27:41.808Z,848
2023-12-26T09:28:56.047Z,1064
2023-12-26T09:30:10.286Z,950
2023-12-26T09:31:24.525Z,891
2023-12-26T09:32:38.763Z,837
2023-12-26T09:33:52.018Z,705
2023-12-26T09:35:06.257Z,851
2023-12-26T09:36:20.496Z,959
2023-12-26T09:37:34.734Z,912
2023-12-26T09:38:48.973Z,912
2023-12-26T09:40:03.212Z,937
2023-12-26T09:41:17.450Z,953
2023-12-26T09:42:31.689Z,910
2023-12-26T09:43:45.928Z,824
2023-12-26T09:45:00.166Z,785
2023-12-26T09:46:14.405Z,828
2023-12-26T09:47:28.644Z,912
2023-12-26T09:48:42.882Z,914
2023-12-26T09:49:56.137Z,877
2023-12-26T09:51:10.376Z,919
2023-12-26T09:52:24.615Z,792
2023-12-26T09:53:38.854Z,923
2023-12-26T09:54:53.092Z,1178
2023-12-26T09:56:07.331Z,1300
2023-12-26T09:57:21.570Z,1225
2023-12-26T09:58:35.808Z,1315
2023-12-26T09:59:50.047Z,1133
2023-12-26T10:01:04.286Z,963
2023-12-26T10:02:18.525Z,865
2023-12-26T10:03:32.763Z,598
2023-12-26T10:04:47.002Z,477
2023-12-26T10:06:00.257Z,559
2023-12-26T10:07:14.496Z,577
2023-12-26T10:08:28.734Z,467
2023-12-26T10:09:42.973Z,520
2023-12-26T10:10:57.212Z,916
2023-12-26T10:12:11.451Z,963
2023-12-26T10:13:25.689Z,1033
2023-12-26T10:14:39.928Z,1180
2023-12-26T10:15:54.167Z,1421
2023-12-26T10:17:08.405Z,1666
2023-12-26T10:18:22.644Z,1788
2023-12-26T10:19:36.883Z,1497
2023-12-26T10:20:51.121Z,1464
2023-12-26T10:22:04.376Z,1658
2023-12-26T10:23:18.615Z,1607
2023-12-26T10:24:32.854Z,1496
2023-12-26T10:25:47.093Z,1412
2023-12-26T10:27:01.331Z,1454
2023-12-26T10:28:15.570Z,1778
2023-12-26T10:29:29.809Z,1892
2023-12-26T10:30:44.047Z,1894
2023-12-26T10:31:58.286Z,1990
2023-12-26T10:33:12.525Z,2016
2023-12-26T10:34:26.764Z,1989
2023-12-26T10:35:41.003Z,1906
2023-12-26T10:36:55.242Z,1949
2023-12-26T10:38:08.497Z,1948
2023-12-26T10:39:22.736Z,2031
2023-12-26T10:40:36.974Z,2192
2023-12-26T10:41:51.213Z,2263
2023-12-26T10:43:05.452Z,2036
2023-12-26T10:44:19.691Z,1747
2023-12-26T10:45:33.929Z,1642
2023-12-26T10:46:48.168Z,1632
2023-12-26T10:48:02.407Z,1606
2023-12-26T10:49:16.645Z,1673
2023-12-26T10:50:30.884Z,1741
2023-12-26T10:51:45.123Z,1567
2023-12-26T10:52:59.361Z,1829
2023-12-26T10:54:12.616Z,1830
2023-12-26T10:55:26.855Z,1625
2023-12-26T10:56:41.094Z,1521
2023-12-26T10:57:55.333Z,1420
2023-12-26T10:59:09.572Z,1454
2023-12-26T11:00:23.811Z,1511
2023-12-26T11:01:38.050Z,1546
2023-12-26T11:02:52.288Z,1538
2023-12-26T11:04:06.527Z,1459
2023-12-26T11:05:20.766Z,1374
2023-12-26T11:06:35.005Z,1231
2023-12-26T11:07:49.244Z,1373
2023-12-26T11:09:03.482Z,1545
2023-12-26T11:10:16.737Z,1626
2023-12-26T11:11:30.976Z,1512
2023-12-26T11:12:45.214Z,1238
2023-12-26T11:13:59.443Z,1429
2023-12-26T11:15:13.692Z,1581
2023-12-26T11:16:27.931Z,1662
2023-12-26T11:17:42.169Z,1753
2023-12-26T11:18:56.408Z,1588
2023-12-26T11:20:10.647Z,1634
2023-12-26T11:21:24.867Z,1996
2023-12-26T11:22:39.124Z,1701
2023-12-26T11:23:53.363Z,1478
2023-12-26T11:25:07.584Z,1359
2023-12-26T11:26:20.856Z,1345
2023-12-26T11:27:35.095Z,1409
2023-12-26T11:30:03.573Z,795
2023-12-26T11:31:17.811Z,1895
2023-12-26T11:32:32.050Z,2217
2023-12-26T11:33:46.288Z,1668
2023-12-26T11:35:00.518Z,979
2023-12-26T11:37:29.005Z,1146
2023-12-26T11:38:43.243Z,1426
2023-12-26T11:39:57.482Z,1038
2023-12-26T11:41:11.721Z,902
2023-12-26T11:42:24.975Z,1652
2023-12-26T11:43:39.214Z,1972
2023-12-26T11:44:53.453Z,2074
2023-12-26T11:46:07.691Z,1984
2023-12-26T11:47:21.930Z,2099
2023-12-26T11:48:36.169Z,2412
2023-12-26T11:49:50.407Z,2280
2023-12-26T11:51:04.643Z,1697
2023-12-26T11:52:18.886Z,2024
2023-12-26T11:53:33.124Z,1977
2023-12-26T11:54:47.363Z,700
2023-12-26T11:56:01.601Z,2258
2023-12-26T11:57:15.840Z,1432
2023-12-26T11:58:29.095Z,2885
2023-12-26T11:59:43.334Z,1837
2023-12-26T12:00:57.572Z,1383
2023-12-26T12:02:11.811Z,1384
2023-12-26T12:03:26.050Z,1426
2023-12-26T12:04:40.288Z,977
2023-12-26T12:05:54.527Z,1311
2023-12-26T12:07:08.765Z,654
2023-12-26T12:08:23.004Z,3281
2023-12-26T12:09:37.243Z,1093
2023-12-26T12:10:51.481Z,2622
2023-12-26T12:12:05.720Z,2306
2023-12-26T12:13:19.959Z,1527
2023-12-26T12:14:33.213Z,2220
2023-12-26T12:15:47.452Z,2721
2023-12-26T12:17:01.691Z,2671
2023-12-26T12:18:15.929Z,2501
2023-12-26T12:19:30.168Z,3050
2023-12-26T12:20:44.407Z,1789
2023-12-26T12:21:58.645Z,3494
2023-12-26T12:23:12.884Z,1737
2023-12-26T12:24:27.123Z,1800
2023-12-26T12:25:41.355Z,605
2023-12-26T12:26:55.601Z,2081
2023-12-26T12:28:09.839Z,2510
2023-12-26T12:29:24.078Z,2413
2023-12-26T12:30:37.333Z,1403
2023-12-26T12:31:51.572Z,1245
2023-12-26T12:33:05.810Z,503
2023-12-26T12:34:20.049Z,1694
2023-12-26T12:35:34.287Z,2492
2023-12-26T12:36:48.526Z,1706
2023-12-26T12:38:01.786Z,1610
2023-12-26T12:39:16.025Z,1477
2023-12-26T12:40:30.263Z,1364
2023-12-26T12:41:44.502Z,1384
2023-12-26T12:42:58.741Z,1226
2023-12-26T12:44:12.979Z,1169
2023-12-26T12:45:27.218Z,1118
2023-12-26T12:46:41.457Z,1117
2023-12-26T12:47:55.695Z,1144
2023-12-26T12:49:09.934Z,1172
2023-12-26T12:50:24.172Z,390
2023-12-26T12:51:38.411Z,1709
2023-12-26T12:52:52.650Z,1205
2023-12-26T12:54:05.905Z,1225
2023-12-26T12:55:20.143Z,1212
2023-12-26T12:56:34.382Z,993
2023-12-26T12:57:48.621Z,1669
2023-12-26T12:59:02.859Z,1373
2023-12-26T13:00:17.098Z,577
2023-12-26T13:01:31.336Z,2308
2023-12-26T13:02:45.575Z,2469
2023-12-26T13:03:59.814Z,1410
2023-12-26T13:05:14.053Z,1221
2023-12-26T13:06:28.291Z,1091
2023-12-26T13:07:42.530Z,966
2023-12-26T13:08:56.768Z,858
2023-12-26T13:10:10.023Z,804
2023-12-26T13:11:24.262Z,736
2023-12-26T13:12:38.500Z,665
2023-12-26T13:13:52.739Z,628
2023-12-26T13:15:06.978Z,620
2023-12-26T13:16:21.217Z,613
2023-12-26T13:17:35.455Z,601
2023-12-26T13:18:49.694Z,583
2023-12-26T13:20:03.933Z,571
2023-12-26T13:21:18.171Z,550
2023-12-26T13:22:32.410Z,515
2023-12-26T13:23:46.648Z,481
2023-12-26T13:25:00.887Z,484
2023-12-26T13:26:14.142Z,508
2023-12-26T13:27:28.381Z,558
2023-12-26T13:28:42.619Z,617
2023-12-26T13:29:56.858Z,733
2023-12-26T13:31:11.097Z,758
2023-12-26T13:32:25.335Z,740
2023-12-26T13:33:39.574Z,703
2023-12-26T13:34:53.813Z,720
2023-12-26T13:36:08.052Z,746
2023-12-26T13:37:22.290Z,754
2023-12-26T13:38:36.529Z,767
2023-12-26T13:39:50.768Z,792
2023-12-26T13:41:05.006Z,808
2023-12-26T13:42:18.261Z,810
2023-12-26T13:43:32.500Z,812
2023-12-26T13:44:46.738Z,828
2023-12-26T13:46:00.977Z,847
2023-12-26T13:47:15.216Z,858
2023-12-26T13:48:29.455Z,802
2023-12-26T13:49:43.693Z,970
2023-12-26T13:50:57.933Z,869
2023-12-26T13:52:12.171Z,748
2023-12-26T13:53:26.410Z,725
2023-12-26T13:54:40.648Z,706
2023-12-26T13:55:54.887Z,684
2023-12-26T13:57:09.126Z,666
2023-12-26T13:58:22.381Z,682
2023-12-26T13:59:36.620Z,708
2023-12-26T14:00:50.858Z,719
2023-12-26T14:02:05.097Z,722
2023-12-26T14:03:19.336Z,718
2023-12-26T14:04:33.574Z,722
2023-12-26T14:05:47.813Z,724
2023-12-26T14:07:02.052Z,737
2023-12-26T14:08:16.291Z,786
2023-12-26T14:09:30.529Z,789
2023-12-26T14:10:44.768Z,719
2023-12-26T14:11:59.007Z,685
2023-12-26T14:13:13.245Z,676
2023-12-26T14:14:26.500Z,669
2023-12-26T14:15:40.739Z,654
2023-12-26T14:16:54.978Z,661
2023-12-26T14:18:09.216Z,586
2023-12-26T14:19:23.455Z,636
2023-12-26T14:20:37.694Z,588
2023-12-26T14:21:51.933Z,531
2023-12-26T14:23:06.172Z,503
2023-12-26T14:24:20.411Z,500
2023-12-26T14:25:34.650Z,498
2023-12-26T14:26:48.889Z,500
2023-12-26T14:28:03.127Z,496
2023-12-26T14:29:17.366Z,506
2023-12-26T14:30:30.621Z,456
2023-12-26T14:31:44.860Z,491
2023-12-26T14:32:59.099Z,533
2023-12-26T14:34:13.337Z,521
2023-12-26T14:35:27.559Z,436
2023-12-26T14:36:41.815Z,527
2023-12-26T14:37:56.054Z,477
2023-12-26T14:39:10.293Z,441
2023-12-26T14:40:24.532Z,426
2023-12-26T14:41:38.770Z,416
2023-12-26T14:42:53.009Z,395
2023-12-26T14:44:07.248Z,376
2023-12-26T14:45:21.487Z,356
2023-12-26T14:46:34.742Z,341
2023-12-26T14:47:48.980Z,325
2023-12-26T14:49:03.219Z,305
2023-12-26T14:50:17.458Z,285
2023-12-26T14:51:31.697Z,267
2023-12-26T14:52:45.936Z,250
2023-12-26T14:54:00.175Z,238
2023-12-26T14:55:14.413Z,224
2023-12-26T14:56:28.652Z,210
2023-12-26T14:57:42.892Z,202
2023-12-26T14:58:57.131Z,190
2023-12-26T15:00:11.370Z,178
2023-12-26T15:01:25.609Z,163
2023-12-26T15:02:38.864Z,152
2023-12-26T15:03:53.102Z,142
2023-12-26T15:05:07.341Z,128
2023-12-26T15:06:21.580Z,116
2023-12-26T15:07:35.819Z,103
2023-12-26T15:08:50.057Z,95
2023-12-26T15:10:04.296Z,86
2023-12-26T15:11:18.535Z,77
2023-12-26T15:12:32.774Z,70
2023-12-26T15:13:47.013Z,61
2023-12-26T15:15:01.252Z,56
2023-12-26T15:16:15.490Z,49
2023-12-26T15:17:29.729Z,42
2023-12-26T15:18:42.984Z,37
2023-12-26T15:19:57.223Z,32
2023-12-26T15:21:11.461Z,26
2023-12-26T15:22:25.700Z,23
2023-12-26T15:23:39.939Z,21
2023-12-26T15:24:54.178Z,14
2023-12-26T15:26:08.417Z,14
2023-12-26T15:27:22.655Z,11
2023-12-26T15:28:36.894Z,10
2023-12-26T15:29:51.133Z,8
2023-12-26T15:31:05.371Z,9
2023-12-26T15:32:19.610Z,3
2023-12-26T15:33:33.849Z,3
2023-12-26T15:34:47.104Z,3
2023-12-26T15:36:01.342Z,2
2023-12-26T15:37:15.581Z,2
2023-12-26T15:38:29.819Z,1
2023-12-26T15:39:44.058Z,1
2023-12-26T15:40:58.297Z,1
2023-12-26T15:42:12.535Z,1
2023-12-26T15:43:26.828Z,0
2023-12-26T15:44:41.121Z,0
2023-12-26T15:45:55.415Z,0
2023-12-26T15:47:09.707Z,0
2023-12-26T15:48:24.000Z,0
2023-12-26T15:49:38.293Z,0
2023-12-26T15:50:51.601Z,0
2023-12-26T15:52:05.894Z,0
2023-12-26T15:53:20.187Z,0
2023-12-26T15:54:34.479Z,0
2023-12-26T15:55:48.772Z,0
2023-12-26T15:57:03.065Z,0
2023-12-26T15:58:17.357Z,0
2023-12-26T15:59:31.650Z,0
2023-12-26T16:00:45.942Z,0
2023-12-26T16:02:00.235Z,0
2023-12-26T16:03:14.528Z,0
2023-12-26T16:04:28.820Z,0
2023-12-26T16:05:43.113Z,0
2023-12-26T16:06:56.422Z,0
2023-12-26T16:08:10.715Z,0
2023-12-26T16:09:25.007Z,0
2023-12-26T16:10:39.300Z,0
2023-12-26T16:11:53.592Z,0
2023-12-26T16:13:07.885Z,0
2023-12-26T16:14:22.178Z,0
2023-12-26T16:15:36.470Z,0
2023-12-26T16:16:50.763Z,0
2023-12-26T16:18:05.056Z,0
2023-12-26T16:19:19.349Z,0
2023-12-26T16:20:33.641Z,0
2023-12-26T16:21:47.934Z,0
2023-12-26T16:23:01.243Z,0
2023-12-26T16:24:15.535Z,0
2023-12-26T16:25:29.828Z,0
2023-12-26T16:26:44.120Z,0
2023-12-26T16:27:58.413Z,0
2023-12-26T16:29:12.706Z,0
2023-12-26T16:30:26.998Z,0
2023-12-26T16:31:41.291Z,0
2023-12-26T16:32:55.583Z,0
2023-12-26T16:34:09.876Z,0
2023-12-26T16:35:24.169Z,0
2023-12-26T16:36:38.461Z,0
2023-12-26T16:37:52.754Z,0
2023-12-26T16:39:06.063Z,0
2023-12-26T16:40:20.355Z,0
2023-12-26T16:41:34.648Z,0
2023-12-26T16:42:48.941Z,0
2023-12-26T16:44:03.233Z,0
2023-12-26T16:45:17.526Z,0
2023-12-26T16:46:30.840Z,0
2023-12-26T16:47:45.133Z,0
2023-12-26T16:48:59.425Z,0
2023-12-26T16:50:13.718Z,0
2023-12-26T16:51:28.011Z,0
2023-12-26T16:52:42.303Z,0
2023-12-26T16:53:56.596Z,0
2023-12-26T16:55:10.889Z,0
2023-12-26T16:56:25.181Z,0
2023-12-26T16:57:39.474Z,0
2023-12-26T16:58:53.767Z,0
2023-12-26T17:00:08.060Z,0
2023-12-26T17:01:22.352Z,0
2023-12-26T17:02:35.661Z,0
2023-12-26T17:03:49.955Z,0
2023-12-26T17:05:04.248Z,0
2023-12-26T17:06:18.540Z,0
2023-12-26T17:07:32.833Z,0
2023-12-26T17:08:47.126Z,0
2023-12-26T17:10:01.418Z,0
2023-12-26T17:11:15.711Z,0
2023-12-26T17:12:29.994Z,0
2023-12-26T17:13:44.291Z,0
2023-12-26T17:14:58.589Z,0
2023-12-26T17:16:12.882Z,0
2023-12-26T17:17:27.175Z,0
2023-12-26T17:18:40.483Z,0
2023-12-26T17:19:54.776Z,0
2023-12-26T17:21:09.069Z,0
2023-12-26T17:22:23.362Z,0
2023-12-26T17:23:37.655Z,0
2023-12-26T17:24:51.947Z,0
2023-12-26T17:26:06.240Z,0
2023-12-26T17:27:20.532Z,0
2023-12-26T17:28:34.825Z,0
2023-12-26T17:29:49.117Z,0
2023-12-26T17:31:03.410Z,0
2023-12-26T17:32:17.703Z,0
2023-12-26T17:33:31.996Z,0
2023-12-26T17:34:45.305Z,0
2023-12-26T17:35:59.598Z,0
2023-12-26T17:37:13.890Z,0